sensor_id;sensor_type;location;lat;lon;timestamp;pressure;altitude;pressure_sealevel;temperature;humidity
77351;BME280;66420;50.246;14.320;2023-07-31T00:02:12;99463.28;;;14.37;85.04
77351;BME280;66420;50.246;14.320;2023-07-31T00:04:57;99464.53;;;14.39;84.33
77351;BME280;66420;50.246;14.320;2023-07-31T00:07:42;99457.25;;;14.35;85.33
77351;BME280;66420;50.246;14.320;2023-07-31T00:10:27;99464.25;;;14.32;85.09
77351;BME280;66420;50.246;14.320;2023-07-31T00:13:12;99453.44;;;14.27;84.92
77351;BME280;66420;50.246;14.320;2023-07-31T00:15:56;99457.94;;;14.32;85.15
77351;BME280;66420;50.246;14.320;2023-07-31T00:18:41;99451.63;;;14.31;84.90
77351;BME280;66420;50.246;14.320;2023-07-31T00:21:26;99447.25;;;14.30;84.47
77351;BME280;66420;50.246;14.320;2023-07-31T00:24:10;99455.88;;;14.29;85.14
77351;BME280;66420;50.246;14.320;2023-07-31T00:26:55;99453.78;;;14.26;84.52
77351;BME280;66420;50.246;14.320;2023-07-31T00:29:40;99454.44;;;14.23;85.04
77351;BME280;66420;50.246;14.320;2023-07-31T00:32:25;99457.19;;;14.23;84.36
77351;BME280;66420;50.246;14.320;2023-07-31T00:35:10;99451.38;;;14.24;84.59
77351;BME280;66420;50.246;14.320;2023-07-31T00:37:57;99454.00;;;14.20;84.88
77351;BME280;66420;50.246;14.320;2023-07-31T00:40:42;99459.16;;;14.22;83.85
77351;BME280;66420;50.246;14.320;2023-07-31T00:43:27;99454.31;;;14.19;83.86
77351;BME280;66420;50.246;14.320;2023-07-31T00:46:12;99455.78;;;14.16;85.05
77351;BME280;66420;50.246;14.320;2023-07-31T00:48:57;99456.78;;;14.12;85.39
77351;BME280;66420;50.246;14.320;2023-07-31T00:51:41;99459.88;;;14.10;84.99
77351;BME280;66420;50.246;14.320;2023-07-31T00:54:26;99454.19;;;14.15;83.94
77351;BME280;66420;50.246;14.320;2023-07-31T00:57:12;99454.00;;;14.20;84.06
77351;BME280;66420;50.246;14.320;2023-07-31T00:59:56;99454.19;;;14.15;84.63
77351;BME280;66420;50.246;14.320;2023-07-31T01:02:42;99458.47;;;14.04;84.12
77351;BME280;66420;50.246;14.320;2023-07-31T01:08:44;99444.91;;;13.99;84.98
77351;BME280;66420;50.246;14.320;2023-07-31T01:11:43;99442.63;;;14.01;84.52
77351;BME280;66420;50.246;14.320;2023-07-31T01:14:31;99445.19;;;14.06;84.26
77351;BME280;66420;50.246;14.320;2023-07-31T01:17:15;99436.44;;;14.04;84.33
77351;BME280;66420;50.246;14.320;2023-07-31T01:20:03;99434.84;;;14.03;84.30
77351;BME280;66420;50.246;14.320;2023-07-31T01:23:13;99428.88;;;14.01;84.28
77351;BME280;66420;50.246;14.320;2023-07-31T01:26:18;99435.03;;;13.98;83.98
77351;BME280;66420;50.246;14.320;2023-07-31T01:29:09;99428.69;;;14.06;83.08
77351;BME280;66420;50.246;14.320;2023-07-31T01:31:56;99423.31;;;14.10;83.10
77351;BME280;66420;50.246;14.320;2023-07-31T01:34:44;99427.00;;;14.14;81.92
77351;BME280;66420;50.246;14.320;2023-07-31T01:37:30;99422.75;;;14.16;82.46
77351;BME280;66420;50.246;14.320;2023-07-31T01:40:15;99425.72;;;14.11;82.38
77351;BME280;66420;50.246;14.320;2023-07-31T01:43:00;99428.69;;;14.06;81.99
77351;BME280;66420;50.246;14.320;2023-07-31T01:45:44;99423.31;;;14.10;82.02
77351;BME280;66420;50.246;14.320;2023-07-31T01:48:29;99416.88;;;14.06;82.23
77351;BME280;66420;50.246;14.320;2023-07-31T01:51:19;99417.88;;;14.01;82.98
77351;BME280;66420;50.246;14.320;2023-07-31T01:54:04;99413.50;;;14.00;82.57
77351;BME280;66420;50.246;14.320;2023-07-31T01:56:49;99415.81;;;13.90;83.48
77351;BME280;66420;50.246;14.320;2023-07-31T01:59:34;99417.56;;;13.94;84.32
77351;BME280;66420;50.246;14.320;2023-07-31T02:02:19;99410.88;;;13.83;83.57
77351;BME280;66420;50.246;14.320;2023-07-31T02:05:04;99411.72;;;13.75;84.85
77351;BME280;66420;50.246;14.320;2023-07-31T02:07:49;99403.47;;;13.75;84.35
77351;BME280;66420;50.246;14.320;2023-07-31T02:10:34;99409.44;;;13.77;83.77
77351;BME280;66420;50.246;14.320;2023-07-31T02:13:19;99410.13;;;13.74;84.50
77351;BME280;66420;50.246;14.320;2023-07-31T02:16:04;99411.56;;;13.71;84.61
77351;BME280;66420;50.246;14.320;2023-07-31T02:18:49;99404.63;;;13.74;84.46
77351;BME280;66420;50.246;14.320;2023-07-31T02:21:34;99409.19;;;13.70;84.59
77351;BME280;66420;50.246;14.320;2023-07-31T02:24:18;99401.75;;;13.62;84.89
77351;BME280;66420;50.246;14.320;2023-07-31T02:27:03;99406.13;;;13.63;86.01
77351;BME280;66420;50.246;14.320;2023-07-31T02:29:48;99402.88;;;13.69;84.63
77351;BME280;66420;50.246;14.320;2023-07-31T02:32:33;99405.56;;;13.78;83.79
77351;BME280;66420;50.246;14.320;2023-07-31T02:35:17;99401.69;;;13.79;83.77
77351;BME280;66420;50.246;14.320;2023-07-31T02:38:02;99403.25;;;13.80;84.46
77351;BME280;66420;50.246;14.320;2023-07-31T02:40:47;99402.81;;;13.78;83.87
77351;BME280;66420;50.246;14.320;2023-07-31T02:43:32;99400.88;;;13.79;84.42
77351;BME280;66420;50.246;14.320;2023-07-31T02:46:17;99399.13;;;13.74;84.66
77351;BME280;66420;50.246;14.320;2023-07-31T02:49:02;99390.31;;;13.81;84.60
77351;BME280;66420;50.246;14.320;2023-07-31T02:51:46;99400.19;;;13.82;84.20
77351;BME280;66420;50.246;14.320;2023-07-31T02:54:31;99402.06;;;13.90;83.45
77351;BME280;66420;50.246;14.320;2023-07-31T02:57:15;99398.50;;;13.89;83.95
77351;BME280;66420;50.246;14.320;2023-07-31T03:00:01;99398.06;;;13.87;83.26
77351;BME280;66420;50.246;14.320;2023-07-31T03:02:46;99405.81;;;13.85;83.95
77351;BME280;66420;50.246;14.320;2023-07-31T03:05:32;99405.38;;;13.83;84.06
77351;BME280;66420;50.246;14.320;2023-07-31T03:08:16;99404.56;;;13.83;84.48
77351;BME280;66420;50.246;14.320;2023-07-31T03:11:01;99405.81;;;13.85;83.97
77351;BME280;66420;50.246;14.320;2023-07-31T03:13:45;99409.94;;;13.79;83.63
77351;BME280;66420;50.246;14.320;2023-07-31T03:16:30;99409.72;;;13.84;84.49
77351;BME280;66420;50.246;14.320;2023-07-31T03:19:15;99408.13;;;13.83;84.24
77351;BME280;66420;50.246;14.320;2023-07-31T03:21:59;99412.69;;;13.79;84.86
77351;BME280;66420;50.246;14.320;2023-07-31T03:24:45;99416.56;;;13.78;83.90
77351;BME280;66420;50.246;14.320;2023-07-31T03:27:30;99406.44;;;13.70;85.01
77351;BME280;66420;50.246;14.320;2023-07-31T03:30:15;99402.06;;;13.69;85.92
77351;BME280;66420;50.246;14.320;2023-07-31T03:32:59;99408.19;;;13.66;85.42
77351;BME280;66420;50.246;14.320;2023-07-31T03:35:44;99397.56;;;13.64;84.89
77351;BME280;66420;50.246;14.320;2023-07-31T03:38:29;99409.81;;;13.67;84.79
77351;BME280;66420;50.246;14.320;2023-07-31T03:41:14;99410.75;;;13.71;84.68
77351;BME280;66420;50.246;14.320;2023-07-31T03:43:58;99417.88;;;13.72;85.06
77351;BME280;66420;50.246;14.320;2023-07-31T03:46:43;99400.19;;;13.82;83.71
77351;BME280;66420;50.246;14.320;2023-07-31T03:49:28;99415.69;;;13.86;82.84
77351;BME280;66420;50.246;14.320;2023-07-31T03:52:12;99416.94;;;13.97;82.99
77351;BME280;66420;50.246;14.320;2023-07-31T03:54:57;99411.63;;;13.92;82.59
77351;BME280;66420;50.246;14.320;2023-07-31T03:57:42;99414.97;;;13.98;82.29
77351;BME280;66420;50.246;14.320;2023-07-31T04:00:27;99413.94;;;14.02;81.76
77351;BME280;66420;50.246;14.320;2023-07-31T04:03:11;99410.06;;;14.03;82.08
77351;BME280;66420;50.246;14.320;2023-07-31T04:05:56;99411.50;;;14.09;81.46
77351;BME280;66420;50.246;14.320;2023-07-31T04:08:41;99403.72;;;14.11;81.55
77351;BME280;66420;50.246;14.320;2023-07-31T04:11:25;99405.47;;;14.16;81.63
77351;BME280;66420;50.246;14.320;2023-07-31T04:14:10;99405.59;;;14.19;81.38
77351;BME280;66420;50.246;14.320;2023-07-31T04:16:54;99399.41;;;14.23;81.84
77351;BME280;66420;50.246;14.320;2023-07-31T04:19:39;99395.31;;;14.29;81.54
77351;BME280;66420;50.246;14.320;2023-07-31T04:22:23;99395.75;;;14.31;80.50
77351;BME280;66420;50.246;14.320;2023-07-31T04:25:08;99406.28;;;14.37;80.36
77351;BME280;66420;50.246;14.320;2023-07-31T04:27:53;99403.31;;;14.42;80.27
77351;BME280;66420;50.246;14.320;2023-07-31T04:30:38;99388.41;;;14.43;79.99
77351;BME280;66420;50.246;14.320;2023-07-31T04:33:23;99404.38;;;14.50;80.24
77351;BME280;66420;50.246;14.320;2023-07-31T04:36:07;99395.66;;;14.48;80.48
77351;BME280;66420;50.246;14.320;2023-07-31T04:38:52;99405.31;;;14.54;80.03
77351;BME280;66420;50.246;14.320;2023-07-31T04:41:36;99401.41;;;14.55;80.82
77351;BME280;66420;50.246;14.320;2023-07-31T04:44:21;99394.56;;;14.61;80.29
77351;BME280;66420;50.246;14.320;2023-07-31T04:47:06;99394.34;;;14.66;80.68
77351;BME280;66420;50.246;14.320;2023-07-31T04:49:50;99401.00;;;14.65;80.01
77351;BME280;66420;50.246;14.320;2023-07-31T04:52:35;99399.84;;;14.66;80.09
77351;BME280;66420;50.246;14.320;2023-07-31T04:55:20;99399.16;;;14.69;79.57
77351;BME280;66420;50.246;14.320;2023-07-31T04:58:05;99396.53;;;14.73;79.71
77351;BME280;66420;50.246;14.320;2023-07-31T05:00:50;99398.25;;;14.77;79.01
77351;BME280;66420;50.246;14.320;2023-07-31T05:03:34;99399.41;;;14.76;78.98
77351;BME280;66420;50.246;14.320;2023-07-31T05:06:19;99403.13;;;14.80;79.07
77351;BME280;66420;50.246;14.320;2023-07-31T05:09:04;99397.84;;;14.87;78.32
77351;BME280;66420;50.246;14.320;2023-07-31T05:11:50;99398.75;;;14.91;78.70
77351;BME280;66420;50.246;14.320;2023-07-31T05:14:34;99392.56;;;14.94;77.99
77351;BME280;66420;50.246;14.320;2023-07-31T05:17:19;99399.03;;;14.98;79.45
77351;BME280;66420;50.246;14.320;2023-07-31T05:20:04;99395.56;;;15.01;80.02
77351;BME280;66420;50.246;14.320;2023-07-31T05:22:50;99395.47;;;15.10;77.95
77351;BME280;66420;50.246;14.320;2023-07-31T05:25:35;99398.00;;;15.15;78.59
77351;BME280;66420;50.246;14.320;2023-07-31T05:28:21;99401.34;;;15.21;79.25
77351;BME280;66420;50.246;14.320;2023-07-31T05:31:06;99406.16;;;15.24;78.79
77351;BME280;66420;50.246;14.320;2023-07-31T05:33:51;99404.66;;;15.26;79.12
77351;BME280;66420;50.246;14.320;2023-07-31T05:36:36;99401.13;;;15.26;79.90
77351;BME280;66420;50.246;14.320;2023-07-31T05:39:21;99403.88;;;15.26;78.36
77351;BME280;66420;50.246;14.320;2023-07-31T05:42:05;99396.53;;;15.30;78.67
77351;BME280;66420;50.246;14.320;2023-07-31T05:44:50;99401.69;;;15.31;78.52
77351;BME280;66420;50.246;14.320;2023-07-31T05:47:35;99397.09;;;15.35;79.59
77351;BME280;66420;50.246;14.320;2023-07-31T05:50:20;99392.63;;;15.43;79.21
77351;BME280;66420;50.246;14.320;2023-07-31T05:53:05;99391.97;;;15.58;78.31
77351;BME280;66420;50.246;14.320;2023-07-31T05:55:50;99385.84;;;15.77;79.00
77351;BME280;66420;50.246;14.320;2023-07-31T05:58:35;99379.94;;;15.90;79.36
77351;BME280;66420;50.246;14.320;2023-07-31T06:01:20;99379.28;;;15.93;77.97
77351;BME280;66420;50.246;14.320;2023-07-31T06:04:05;99375.84;;;15.84;78.42
77351;BME280;66420;50.246;14.320;2023-07-31T06:06:50;99363.19;;;15.83;77.71
77351;BME280;66420;50.246;14.320;2023-07-31T06:09:35;99366.41;;;15.85;78.82
77351;BME280;66420;50.246;14.320;2023-07-31T06:12:19;99365.25;;;15.86;77.88
77351;BME280;66420;50.246;14.320;2023-07-31T06:15:04;99363.91;;;15.80;78.74
77351;BME280;66420;50.246;14.320;2023-07-31T06:17:49;99368.91;;;15.90;79.68
77351;BME280;66420;50.246;14.320;2023-07-31T06:20:34;99363.88;;;15.92;79.08
77351;BME280;66420;50.246;14.320;2023-07-31T06:23:19;99366.03;;;15.99;78.88
77351;BME280;66420;50.246;14.320;2023-07-31T06:26:05;99364.53;;;16.02;77.64
77351;BME280;66420;50.246;14.320;2023-07-31T06:28:49;99360.81;;;16.10;80.21
77351;BME280;66420;50.246;14.320;2023-07-31T06:31:34;99356.09;;;16.10;77.97
77351;BME280;66420;50.246;14.320;2023-07-31T06:34:19;99354.47;;;16.09;77.87
77351;BME280;66420;50.246;14.320;2023-07-31T06:37:04;99352.28;;;16.15;77.07
77351;BME280;66420;50.246;14.320;2023-07-31T06:39:49;99358.88;;;16.10;77.42
77351;BME280;66420;50.246;14.320;2023-07-31T06:42:33;99348.16;;;16.09;76.80
77351;BME280;66420;50.246;14.320;2023-07-31T06:45:19;99347.91;;;16.14;78.09
77351;BME280;66420;50.246;14.320;2023-07-31T06:48:04;99356.31;;;16.17;77.69
77351;BME280;66420;50.246;14.320;2023-07-31T06:50:49;99368.94;;;16.18;77.61
77351;BME280;66420;50.246;14.320;2023-07-31T06:53:33;99359.19;;;16.21;78.39
77351;BME280;66420;50.246;14.320;2023-07-31T06:56:18;99354.22;;;16.26;78.46
77351;BME280;66420;50.246;14.320;2023-07-31T06:59:03;99360.75;;;16.34;78.75
77351;BME280;66420;50.246;14.320;2023-07-31T07:01:48;99359.53;;;16.47;77.54
77351;BME280;66420;50.246;14.320;2023-07-31T07:04:32;99372.84;;;16.57;76.23
77351;BME280;66420;50.246;14.320;2023-07-31T07:07:17;99371.47;;;16.63;76.18
77351;BME280;66420;50.246;14.320;2023-07-31T07:10:03;99367.28;;;16.69;75.31
77351;BME280;66420;50.246;14.320;2023-07-31T07:12:48;99376.44;;;16.73;75.44
77351;BME280;66420;50.246;14.320;2023-07-31T07:15:33;99381.72;;;16.78;74.88
77351;BME280;66420;50.246;14.320;2023-07-31T07:18:18;99377.00;;;16.79;73.39
77351;BME280;66420;50.246;14.320;2023-07-31T07:21:03;99368.00;;;16.82;74.22
77351;BME280;66420;50.246;14.320;2023-07-31T07:23:47;99374.78;;;16.84;74.76
77351;BME280;66420;50.246;14.320;2023-07-31T07:26:32;99372.03;;;16.84;75.48
77351;BME280;66420;50.246;14.320;2023-07-31T07:29:17;99369.34;;;16.88;74.37
77351;BME280;66420;50.246;14.320;2023-07-31T07:32:01;99360.81;;;16.93;72.81
77351;BME280;66420;50.246;14.320;2023-07-31T07:34:47;99362.50;;;16.98;73.96
77351;BME280;66420;50.246;14.320;2023-07-31T07:37:32;99363.03;;;17.03;73.80
77351;BME280;66420;50.246;14.320;2023-07-31T07:40:17;99356.59;;;17.15;73.33
77351;BME280;66420;50.246;14.320;2023-07-31T07:43:01;99355.91;;;17.18;71.48
77351;BME280;66420;50.246;14.320;2023-07-31T07:45:46;99359.31;;;17.27;73.19
77351;BME280;66420;50.246;14.320;2023-07-31T07:48:30;99363.38;;;17.33;73.74
77351;BME280;66420;50.246;14.320;2023-07-31T07:51:15;99368.66;;;17.38;71.51
77351;BME280;66420;50.246;14.320;2023-07-31T07:54:00;99380.09;;;17.37;72.48
77351;BME280;66420;50.246;14.320;2023-07-31T07:56:45;99378.56;;;17.39;71.64
77351;BME280;66420;50.246;14.320;2023-07-31T07:59:29;99377.66;;;17.35;71.29
77351;BME280;66420;50.246;14.320;2023-07-31T08:02:14;99372.13;;;17.35;72.50
77351;BME280;66420;50.246;14.320;2023-07-31T08:04:59;99374.00;;;17.31;72.96
77351;BME280;66420;50.246;14.320;2023-07-31T08:07:43;99371.94;;;17.28;72.55
77351;BME280;66420;50.246;14.320;2023-07-31T08:10:28;99381.22;;;17.20;70.58
77351;BME280;66420;50.246;14.320;2023-07-31T08:13:13;99378.03;;;17.18;71.43
77351;BME280;66420;50.246;14.320;2023-07-31T08:15:57;99374.09;;;17.19;72.04
77351;BME280;66420;50.246;14.320;2023-07-31T08:18:42;99379.81;;;17.10;71.73
77351;BME280;66420;50.246;14.320;2023-07-31T08:21:29;99382.47;;;17.07;72.72
77351;BME280;66420;50.246;14.320;2023-07-31T08:24:14;99384.91;;;17.08;72.29
77351;BME280;66420;50.246;14.320;2023-07-31T08:26:59;99377.28;;;17.05;70.11
77351;BME280;66420;50.246;14.320;2023-07-31T08:29:43;99385.72;;;17.09;72.63
77351;BME280;66420;50.246;14.320;2023-07-31T08:32:28;99388.09;;;17.10;72.17
77351;BME280;66420;50.246;14.320;2023-07-31T08:35:12;99388.38;;;17.21;72.85
77351;BME280;66420;50.246;14.320;2023-07-31T08:37:57;99392.03;;;17.25;72.22
77351;BME280;66420;50.246;14.320;2023-07-31T08:40:42;99386.97;;;17.27;72.29
77351;BME280;66420;50.246;14.320;2023-07-31T08:43:27;99380.63;;;17.26;71.49
77351;BME280;66420;50.246;14.320;2023-07-31T08:46:12;99382.31;;;17.31;72.62
77351;BME280;66420;50.246;14.320;2023-07-31T08:48:59;99379.28;;;17.36;72.07
77351;BME280;66420;50.246;14.320;2023-07-31T08:51:46;99383.34;;;17.42;71.75
77351;BME280;66420;50.246;14.320;2023-07-31T08:54:33;99381.06;;;17.44;70.86
77351;BME280;66420;50.246;14.320;2023-07-31T08:57:18;99367.66;;;17.46;71.25
77351;BME280;66420;50.246;14.320;2023-07-31T09:00:04;99373.13;;;17.58;70.96
77351;BME280;66420;50.246;14.320;2023-07-31T09:02:59;99370.69;;;17.73;71.83
77351;BME280;66420;50.246;14.320;2023-07-31T09:05:46;99364.88;;;17.78;70.59
77351;BME280;66420;50.246;14.320;2023-07-31T09:08:31;99367.97;;;17.92;71.67
77351;BME280;66420;50.246;14.320;2023-07-31T09:11:16;99378.44;;;18.02;70.52
77351;BME280;66420;50.246;14.320;2023-07-31T09:14:02;99366.66;;;18.05;68.98
77351;BME280;66420;50.246;14.320;2023-07-31T09:16:57;99365.72;;;18.16;69.57
77351;BME280;66420;50.246;14.320;2023-07-31T09:19:43;99366.38;;;18.29;71.36
77351;BME280;66420;50.246;14.320;2023-07-31T09:22:32;99361.69;;;18.33;70.54
77351;BME280;66420;50.246;14.320;2023-07-31T09:25:19;99357.47;;;18.39;72.21
77351;BME280;66420;50.246;14.320;2023-07-31T09:28:09;99363.53;;;18.45;71.80
77351;BME280;66420;50.246;14.320;2023-07-31T09:30:53;99360.47;;;18.50;70.68
77351;BME280;66420;50.246;14.320;2023-07-31T09:33:54;99359.41;;;18.54;69.31
77351;BME280;66420;50.246;14.320;2023-07-31T09:36:49;99356.34;;;18.59;69.63
77351;BME280;66420;50.246;14.320;2023-07-31T09:39:46;99351.22;;;18.62;68.09
77351;BME280;66420;50.246;14.320;2023-07-31T09:42:34;99345.75;;;18.65;69.76
77351;BME280;66420;50.246;14.320;2023-07-31T09:45:18;99341.09;;;18.69;69.71
77351;BME280;66420;50.246;14.320;2023-07-31T09:48:07;99333.63;;;18.73;69.22
77351;BME280;66420;50.246;14.320;2023-07-31T09:50:53;99329.00;;;18.81;68.21
77351;BME280;66420;50.246;14.320;2023-07-31T09:53:39;99322.41;;;18.89;68.30
77351;BME280;66420;50.246;14.320;2023-07-31T09:56:24;99317.97;;;19.07;68.37
77351;BME280;66420;50.246;14.320;2023-07-31T09:59:19;99317.56;;;19.31;68.20
77351;BME280;66420;50.246;14.320;2023-07-31T10:02:07;99309.50;;;19.45;67.34
77351;BME280;66420;50.246;14.320;2023-07-31T10:04:56;99303.63;;;19.51;66.99
77351;BME280;66420;50.246;14.320;2023-07-31T10:08:02;99295.06;;;19.63;66.64
77351;BME280;66420;50.246;14.320;2023-07-31T10:10:48;99288.19;;;19.79;66.24
77351;BME280;66420;50.246;14.320;2023-07-31T10:13:33;99287.16;;;19.95;66.58
77351;BME280;66420;50.246;14.320;2023-07-31T10:16:18;99285.50;;;20.20;65.25
77351;BME280;66420;50.246;14.320;2023-07-31T10:19:05;99274.53;;;20.30;63.95
77351;BME280;66420;50.246;14.320;2023-07-31T10:21:50;99275.91;;;20.47;64.12
77351;BME280;66420;50.246;14.320;2023-07-31T10:24:36;99278.41;;;20.59;62.88
77351;BME280;66420;50.246;14.320;2023-07-31T10:27:21;99267.78;;;20.72;63.91
77351;BME280;66420;50.246;14.320;2023-07-31T10:30:12;99276.09;;;20.65;62.19
77351;BME280;66420;50.246;14.320;2023-07-31T10:32:58;99273.78;;;20.74;62.38
77351;BME280;66420;50.246;14.320;2023-07-31T10:35:43;99261.81;;;20.66;61.40
77351;BME280;66420;50.246;14.320;2023-07-31T10:38:27;99257.88;;;20.71;60.75
77351;BME280;66420;50.246;14.320;2023-07-31T10:41:12;99258.19;;;21.10;62.43
77351;BME280;66420;50.246;14.320;2023-07-31T10:44:00;99250.97;;;21.53;62.13
77351;BME280;66420;50.246;14.320;2023-07-31T10:46:45;99251.63;;;21.36;59.94
77351;BME280;66420;50.246;14.320;2023-07-31T10:49:30;99244.50;;;21.35;60.17
77351;BME280;66420;50.246;14.320;2023-07-31T10:52:20;99245.41;;;21.60;59.57
77351;BME280;66420;50.246;14.320;2023-07-31T10:58:07;99235.41;;;21.48;59.30
77351;BME280;66420;50.246;14.320;2023-07-31T11:00:57;99231.81;;;21.44;57.49
77351;BME280;66420;50.246;14.320;2023-07-31T11:03:48;99235.91;;;21.64;58.75
77351;BME280;66420;50.246;14.320;2023-07-31T11:06:36;99228.34;;;21.68;57.88
77351;BME280;66420;50.246;14.320;2023-07-31T11:09:21;99227.63;;;21.82;57.99
77351;BME280;66420;50.246;14.320;2023-07-31T11:12:05;99230.50;;;21.96;58.23
77351;BME280;66420;50.246;14.320;2023-07-31T11:14:56;99219.69;;;21.91;57.48
77351;BME280;66420;50.246;14.320;2023-07-31T11:17:41;99225.25;;;21.84;57.96
77351;BME280;66420;50.246;14.320;2023-07-31T11:20:27;99228.75;;;21.67;57.32
77351;BME280;66420;50.246;14.320;2023-07-31T11:23:12;99224.44;;;21.84;57.20
77351;BME280;66420;50.246;14.320;2023-07-31T11:25:59;99210.59;;;21.94;57.21
77351;BME280;66420;50.246;14.320;2023-07-31T11:28:47;99205.81;;;21.98;57.06
77351;BME280;66420;50.246;14.320;2023-07-31T11:31:32;99209.75;;;21.90;57.05
77351;BME280;66420;50.246;14.320;2023-07-31T11:34:23;99208.91;;;21.83;57.28
77351;BME280;66420;50.246;14.320;2023-07-31T11:37:08;99206.84;;;21.58;56.23
77351;BME280;66420;50.246;14.320;2023-07-31T11:40:00;99206.00;;;21.51;57.34
77351;BME280;66420;50.246;14.320;2023-07-31T11:42:45;99203.63;;;21.49;56.25
77351;BME280;66420;50.246;14.320;2023-07-31T11:45:29;99197.63;;;21.51;57.58
77351;BME280;66420;50.246;14.320;2023-07-31T11:48:28;99191.69;;;21.52;55.88
77351;BME280;66420;50.246;14.320;2023-07-31T11:51:14;99197.69;;;21.65;55.36
77351;BME280;66420;50.246;14.320;2023-07-31T11:54:00;99196.91;;;21.68;56.83
77351;BME280;66420;50.246;14.320;2023-07-31T11:56:46;99186.56;;;21.65;57.04
77351;BME280;66420;50.246;14.320;2023-07-31T11:59:31;99187.31;;;21.55;55.27
77351;BME280;66420;50.246;14.320;2023-07-31T12:02:18;99188.47;;;21.47;55.60
77351;BME280;66420;50.246;14.320;2023-07-31T12:05:03;99190.88;;;21.52;57.33
77351;BME280;66420;50.246;14.320;2023-07-31T12:07:48;99179.38;;;21.53;56.03
77351;BME280;66420;50.246;14.320;2023-07-31T12:10:33;99186.59;;;21.72;56.33
77351;BME280;66420;50.246;14.320;2023-07-31T12:13:23;99179.88;;;21.87;56.43
77351;BME280;66420;50.246;14.320;2023-07-31T12:16:08;99171.50;;;21.87;57.05
77351;BME280;66420;50.246;14.320;2023-07-31T12:18:53;99168.72;;;21.87;54.51
77351;BME280;66420;50.246;14.320;2023-07-31T12:21:38;99162.03;;;22.02;53.59
77351;BME280;66420;50.246;14.320;2023-07-31T12:24:23;99158.91;;;22.22;53.20
77351;BME280;66420;50.246;14.320;2023-07-31T12:27:12;99155.66;;;22.09;53.03
77351;BME280;66420;50.246;14.320;2023-07-31T12:29:57;99144.53;;;21.98;54.01
77351;BME280;66420;50.246;14.320;2023-07-31T12:32:41;99141.72;;;22.05;54.62
77351;BME280;66420;50.246;14.320;2023-07-31T12:35:34;99151.75;;;22.35;54.83
77351;BME280;66420;50.246;14.320;2023-07-31T12:38:19;99142.59;;;22.52;52.71
77351;BME280;66420;50.246;14.320;2023-07-31T12:41:05;99147.38;;;22.83;52.49
77351;BME280;66420;50.246;14.320;2023-07-31T12:43:51;99138.97;;;22.87;52.63
77351;BME280;66420;50.246;14.320;2023-07-31T12:46:35;99138.59;;;22.60;51.62
77351;BME280;66420;50.246;14.320;2023-07-31T12:49:20;99138.97;;;22.69;51.94
77351;BME280;66420;50.246;14.320;2023-07-31T12:52:05;99135.81;;;22.67;51.79
77351;BME280;66420;50.246;14.320;2023-07-31T12:54:49;99134.19;;;22.41;52.54
77351;BME280;66420;50.246;14.320;2023-07-31T12:57:34;99136.63;;;22.36;52.90
77351;BME280;66420;50.246;14.320;2023-07-31T13:00:19;99133.41;;;22.55;52.60
77351;BME280;66420;50.246;14.320;2023-07-31T13:03:03;99121.06;;;22.56;51.07
77351;BME280;66420;50.246;14.320;2023-07-31T13:05:48;99127.03;;;22.65;51.88
77351;BME280;66420;50.246;14.320;2023-07-31T13:08:33;99126.66;;;22.70;51.30
77351;BME280;66420;50.246;14.320;2023-07-31T13:11:17;99122.28;;;22.80;51.82
77351;BME280;66420;50.246;14.320;2023-07-31T13:14:02;99119.88;;;22.82;51.58
77351;BME280;66420;50.246;14.320;2023-07-31T13:16:47;99115.09;;;22.75;51.32
77351;BME280;66420;50.246;14.320;2023-07-31T13:19:31;99113.50;;;22.67;51.34
77351;BME280;66420;50.246;14.320;2023-07-31T13:22:16;99122.25;;;22.62;52.32
77351;BME280;66420;50.246;14.320;2023-07-31T13:25:01;99112.69;;;22.56;52.76
77351;BME280;66420;50.246;14.320;2023-07-31T13:27:45;99116.66;;;22.55;52.46
77351;BME280;66420;50.246;14.320;2023-07-31T13:30:30;99107.13;;;22.49;51.23
77351;BME280;66420;50.246;14.320;2023-07-31T13:33:15;99094.78;;;22.43;51.87
77351;BME280;66420;50.246;14.320;2023-07-31T13:35:59;99088.78;;;22.37;50.60
77351;BME280;66420;50.246;14.320;2023-07-31T13:38:44;99085.59;;;22.46;52.47
77351;BME280;66420;50.246;14.320;2023-07-31T13:41:28;99085.59;;;22.60;52.18
77351;BME280;66420;50.246;14.320;2023-07-31T13:44:13;99079.22;;;22.84;51.67
77351;BME280;66420;50.246;14.320;2023-07-31T13:46:57;99082.78;;;22.95;51.37
77351;BME280;66420;50.246;14.320;2023-07-31T13:49:42;99076.41;;;22.95;51.40
77351;BME280;66420;50.246;14.320;2023-07-31T13:52:28;99080.38;;;22.87;53.06
77351;BME280;66420;50.246;14.320;2023-07-31T13:55:12;99075.25;;;22.82;53.48
77351;BME280;66420;50.246;14.320;2023-07-31T13:57:57;99072.06;;;22.48;51.70
77351;BME280;66420;50.246;14.320;2023-07-31T14:00:41;99082.44;;;22.30;53.06
77351;BME280;66420;50.246;14.320;2023-07-31T14:03:26;99080.06;;;22.18;52.68
77351;BME280;66420;50.246;14.320;2023-07-31T14:06:11;99070.88;;;22.35;52.53
77351;BME280;66420;50.246;14.320;2023-07-31T14:08:55;99070.47;;;22.47;52.79
77351;BME280;66420;50.246;14.320;2023-07-31T14:11:40;99070.88;;;22.42;52.42
77351;BME280;66420;50.246;14.320;2023-07-31T14:14:25;99063.31;;;22.53;52.84
77351;BME280;66420;50.246;14.320;2023-07-31T14:17:09;99054.91;;;22.57;52.10
77351;BME280;66420;50.246;14.320;2023-07-31T14:19:54;99046.16;;;22.58;52.46
77351;BME280;66420;50.246;14.320;2023-07-31T14:22:39;99045.75;;;22.63;52.83
77351;BME280;66420;50.246;14.320;2023-07-31T14:25:24;99040.16;;;22.67;53.09
77351;BME280;66420;50.246;14.320;2023-07-31T14:28:09;99040.56;;;22.65;53.55
77351;BME280;66420;50.246;14.320;2023-07-31T14:30:53;99041.78;;;22.53;50.23
77351;BME280;66420;50.246;14.320;2023-07-31T14:33:38;99025.06;;;22.53;51.58